Terminal Aerodrome Forecast
Issued by NWS Duluth, MN

Home | Current Version | Previous Version | Text Only | Print | Product List | Glossary On
Versions: 1 2 3 4 5 6 7 8 9 10 11 12 13 14 15 16 17 18 19 20 21 22 23 24 25 26 27 28 29 30
396
FTUS43 KDLH 202123 AAA
TAFINL
TAF AMD
KINL 202123Z 2021/2118 09010KT P6SM FEW120
     FM202300 08010KT P6SM VCSH OVC040
     FM210500 07009G18KT 5SM -RA BR OVC020
     FM210900 06008KT 5SM -RA BR OVC012
     FM211400 05007KT 3SM -RA BR OVC008=

USA.gov is the U.S. government's official web portal to all federal, state and local government web resources and services.